Time;durP1;ratioP1;P1;durP2;ratioP2;P2;SDS_P1;SDS_P2;PMS_P1;PMS_P2;Temp;Humidity;BMP_temperature;BMP_pressure;BME280_temperature;BME280_humidity;BME280_pressure;Samples;Min_cycle;Max_cycle;Signal;HPM_P1;HPM_P2
2022/03/11 00:01:54;;;;;;;5.57;2.72;;;;;;;-6.39;38.00;101774.28;4878244;29;20108;-80
2022/03/11 00:04:20;;;;;;;5.40;2.95;;;;;;;-6.31;38.21;101782.56;4853169;29;20172;-80
2022/03/11 00:06:46;;;;;;;6.80;2.80;;;;;;;-6.36;38.29;101763.50;4869313;29;20040;-80
2022/03/11 00:09:13;;;;;;;10.55;2.55;;;;;;;-6.21;37.85;101779.22;4881354;29;20418;-80
2022/03/11 00:11:38;;;;;;;7.50;2.72;;;;;;;-6.24;38.09;101768.81;4866588;29;20519;-79
2022/03/11 00:14:04;;;;;;;10.00;2.60;;;;;;;-6.14;38.07;101781.56;4881593;29;20049;-78
2022/03/11 00:16:31;;;;;;;5.85;2.47;;;;;;;-6.25;38.14;101751.81;4889530;29;20074;-79
2022/03/11 00:18:57;;;;;;;8.25;2.30;;;;;;;-6.08;38.00;101783.75;4888414;29;20055;-78
2022/03/11 00:21:22;;;;;;;9.45;3.13;;;;;;;-6.20;37.85;101768.34;4902240;29;20048;-78
2022/03/11 00:23:49;;;;;;;6.60;2.63;;;;;;;-6.21;38.01;101779.22;4890665;29;20049;-78
2022/03/11 00:26:15;;;;;;;7.40;2.80;;;;;;;-6.27;38.28;101765.97;4888407;29;20108;-77
2022/03/11 00:28:40;;;;;;;11.48;3.55;;;;;;;-6.45;38.16;101743.31;4869124;29;20052;-80
2022/03/11 00:31:07;;;;;;;15.48;4.00;;;;;;;-6.30;38.27;101788.53;4886626;29;20045;-78
2022/03/11 00:33:33;;;;;;;13.27;3.55;;;;;;;-6.34;37.90;101783.94;4869773;29;20529;-78
2022/03/11 00:36:00;;;;;;;13.80;4.40;;;;;;;-6.47;38.08;101775.19;4883402;29;20037;-80
2022/03/11 00:38:26;;;;;;;11.40;3.45;;;;;;;-6.44;37.92;101783.09;4886108;29;20047;-81
2022/03/11 00:40:56;;;;;;;13.90;4.50;;;;;;;-6.68;38.22;101743.75;4869657;29;20402;-78
2022/03/11 00:43:23;;;;;;;12.52;3.30;;;;;;;-6.53;38.47;101774.66;4852951;29;20491;-79
2022/03/11 00:45:49;;;;;;;13.55;3.17;;;;;;;-6.79;37.89;101737.69;4844854;29;20059;-78
2022/03/11 00:48:16;;;;;;;14.57;3.85;;;;;;;-6.87;38.15;101733.56;4867907;29;20072;-80
2022/03/11 00:50:42;;;;;;;8.68;3.20;;;;;;;-6.60;38.89;101769.78;4866010;29;20040;-80
2022/03/11 00:53:08;;;;;;;8.40;3.17;;;;;;;-6.64;38.30;101757.56;4884213;29;20562;-78
2022/03/11 00:55:36;;;;;;;14.45;3.20;;;;;;;-6.74;37.70;101744.09;4885385;29;20045;-81
2022/03/11 00:58:01;;;;;;;7.30;3.10;;;;;;;-6.72;38.50;101747.63;4868645;29;20044;-79
2022/03/11 01:00:28;;;;;;;9.50;3.20;;;;;;;-6.66;38.08;101750.72;4867961;29;20040;-77
2022/03/11 01:02:54;;;;;;;9.70;2.65;;;;;;;-6.61;38.22;101752.78;4899255;29;20067;-80
2022/03/11 01:05:23;;;;;;;7.10;3.22;;;;;;;-6.76;37.98;101732.91;4902637;29;20040;-81
2022/03/11 01:07:49;;;;;;;10.88;3.00;;;;;;;-6.58;38.09;101759.03;4885686;29;20045;-78
2022/03/11 01:10:16;;;;;;;9.45;3.15;;;;;;;-6.59;37.98;101759.78;4874804;29;20111;-76
2022/03/11 01:12:42;;;;;;;8.45;3.45;;;;;;;-6.80;37.89;101725.78;4880395;29;20047;-78
2022/03/11 01:15:09;;;;;;;12.57;3.08;;;;;;;-6.57;38.36;101753.22;4889216;29;20130;-80
2022/03/11 01:17:36;;;;;;;8.48;3.10;;;;;;;-6.51;38.35;101756.31;4898637;29;20056;-78
2022/03/11 01:20:10;;;;;;;;;;;;;;;-6.55;38.03;101751.72;4904506;29;20039;-79
2022/03/11 01:22:36;;;;;;;15.27;2.80;;;;;;;-6.66;38.05;101754.91;4917113;29;19923;-79
2022/03/11 01:25:03;;;;;;;11.03;3.30;;;;;;;-6.72;38.27;101737.50;4901136;29;20040;-77
2022/03/11 01:27:29;;;;;;;10.27;2.90;;;;;;;-6.65;38.04;101756.69;4894254;29;20052;-80
2022/03/11 01:29:55;;;;;;;12.00;3.17;;;;;;;-6.68;38.58;101752.22;4903214;29;20047;-78
2022/03/11 01:32:21;;;;;;;14.80;3.10;;;;;;;-6.70;38.57;101747.78;4902425;29;20051;-80
2022/03/11 01:34:47;;;;;;;9.77;3.27;;;;;;;-6.76;38.47;101730.38;4903555;29;20068;-78
2022/03/11 01:37:13;;;;;;;10.27;3.22;;;;;;;-6.72;38.30;101724.84;4901168;29;20073;-79
2022/03/11 01:39:41;;;;;;;10.17;3.77;;;;;;;-6.73;38.00;101734.84;4909820;29;20066;-79
2022/03/11 01:42:07;;;;;;;8.27;3.27;;;;;;;-6.66;38.12;101744.78;4893907;29;20042;-77
2022/03/11 01:45:11;;;;;;;11.47;3.70;;;;;;;-6.68;38.46;101747.16;4902314;29;20502;-80
2022/03/11 01:47:37;;;;;;;10.15;3.67;;;;;;;-6.71;38.32;101734.22;4901690;29;20052;-78
2022/03/11 01:50:05;;;;;;;10.27;3.07;;;;;;;-6.85;38.32;101711.81;4900688;29;20040;-78
2022/03/11 01:52:31;;;;;;;13.05;3.40;;;;;;;-6.83;38.39;101715.38;4885598;29;20040;-79
2022/03/11 01:54:57;;;;;;;8.73;3.53;;;;;;;-6.70;38.77;101738.53;4927978;29;20066;-79
2022/03/11 01:57:24;;;;;;;8.70;3.08;;;;;;;-6.81;38.57;101718.94;4926359;29;20028;-78
2022/03/11 01:59:53;;;;;;;14.73;3.27;;;;;;;-6.64;38.30;101732.25;4900150;29;20040;-78
2022/03/11 02:02:21;;;;;;;6.68;2.92;;;;;;;-6.82;38.69;101707.03;4918595;29;20064;-78
2022/03/11 02:04:47;;;;;;;14.02;3.17;;;;;;;-6.58;38.29;101737.88;4902530;29;20058;-79
2022/03/11 02:07:13;;;;;;;10.77;3.47;;;;;;;-6.73;38.29;101717.09;4902441;29;20044;-79
2022/03/11 02:09:39;;;;;;;14.85;3.28;;;;;;;-6.70;38.44;101732.59;4902967;29;20044;-78
2022/03/11 02:12:06;;;;;;;9.20;3.28;;;;;;;-6.75;38.13;101727.09;4905736;29;20132;-77
2022/03/11 02:14:32;;;;;;;17.55;5.15;;;;;;;-6.80;38.65;101725.78;4918118;29;20782;-78
2022/03/11 02:16:58;;;;;;;16.70;3.75;;;;;;;-6.91;38.34;101728.97;4899729;29;20654;-79
2022/03/11 02:19:25;;;;;;;30.00;5.90;;;;;;;-6.95;38.43;101725.25;4901281;29;20051;-78
2022/03/11 02:21:53;;;;;;;15.67;3.70;;;;;;;-7.04;38.77;101720.25;4886222;29;20503;-79
2022/03/11 02:24:19;;;;;;;18.27;3.27;;;;;;;-6.94;38.59;101731.19;4900805;29;20046;-79
2022/03/11 02:26:45;;;;;;;24.23;4.33;;;;;;;-7.08;38.97;101718.16;4900271;29;20064;-79
2022/03/11 02:29:11;;;;;;;13.90;3.90;;;;;;;-7.26;38.67;101715.72;4902096;29;20041;-78
2022/03/11 02:31:37;;;;;;;9.37;3.10;;;;;;;-7.28;39.19;101719.75;4903076;29;20572;-77
2022/03/11 02:34:04;;;;;;;16.03;3.40;;;;;;;-7.16;39.29;101720.00;4899587;29;20091;-81
2022/03/11 02:36:30;;;;;;;14.13;3.73;;;;;;;-7.14;39.39;101715.97;4890600;29;20059;-77
2022/03/11 02:38:56;;;;;;;17.03;3.60;;;;;;;-7.14;39.34;101710.91;4889329;29;20052;-77
2022/03/11 02:41:23;;;;;;;19.83;4.03;;;;;;;-7.09;39.52;101723.97;4883975;29;20035;-82
2022/03/11 02:43:50;;;;;;;16.10;4.00;;;;;;;-7.27;38.85;101707.97;4900056;29;20048;-78
2022/03/11 02:46:16;;;;;;;30.00;4.83;;;;;;;-7.39;38.90;101717.81;4901779;29;20036;-78
2022/03/11 02:48:43;;;;;;;22.33;6.43;;;;;;;-7.66;39.41;101703.47;4882912;29;20044;-81
2022/03/11 02:51:09;;;;;;;24.97;5.23;;;;;;;-7.63;39.34;101732.50;4885803;29;20039;-78
2022/03/11 02:53:40;;;;;;;17.63;4.33;;;;;;;-7.71;39.02;101719.09;4887404;29;20044;-79
2022/03/11 02:56:09;;;;;;;13.47;3.80;;;;;;;-7.84;39.34;101718.69;4890673;29;20036;-79
2022/03/11 02:58:39;;;;;;;12.90;3.73;;;;;;;-7.93;39.80;101706.06;4903002;29;20044;-81
2022/03/11 03:01:07;;;;;;;7.67;3.10;;;;;;;-7.77;39.41;101715.09;4904786;29;20122;-79
2022/03/11 03:03:33;;;;;;;18.20;3.87;;;;;;;-7.88;38.92;101687.16;4889856;29;20043;-78
2022/03/11 03:05:59;;;;;;;8.90;3.23;;;;;;;-7.74;39.36;101700.22;4901483;29;20521;-77
2022/03/11 03:08:25;;;;;;;6.80;2.93;;;;;;;-7.60;39.65;101706.59;4892280;29;20074;-79
2022/03/11 03:10:51;;;;;;;7.30;3.03;;;;;;;-7.65;39.45;101703.63;4905952;29;20071;-78
2022/03/11 03:13:18;;;;;;;15.70;3.90;;;;;;;-7.69;39.59;101681.31;4900683;29;20127;-78
2022/03/11 03:15:44;;;;;;;12.30;2.70;;;;;;;-7.52;39.46;101693.03;4895785;29;20055;-79
2022/03/11 03:18:11;;;;;;;11.53;2.80;;;;;;;-7.50;39.17;101698.22;4903430;29;20048;-78
2022/03/11 03:20:36;;;;;;;21.47;4.20;;;;;;;-7.56;39.59;101686.78;4904732;29;20052;-78
2022/03/11 03:23:03;;;;;;;15.17;2.90;;;;;;;-7.66;39.19;101678.19;4889580;29;20036;-79
2022/03/11 03:25:29;;;;;;;22.80;4.70;;;;;;;-7.75;39.33;101678.22;4904837;29;20028;-79
2022/03/11 03:27:55;;;;;;;6.70;3.13;;;;;;;-7.81;39.38;101693.69;4904097;29;20052;-79
2022/03/11 03:30:21;;;;;;;17.57;3.50;;;;;;;-8.10;39.57;101658.94;4909728;29;20048;-78
2022/03/11 03:32:47;;;;;;;29.53;4.60;;;;;;;-8.01;39.73;101684.19;4907168;29;20049;-79
2022/03/11 03:35:13;;;;;;;13.83;3.40;;;;;;;-8.08;39.45;101686.91;4903883;29;20076;-79
2022/03/11 03:37:40;;;;;;;10.50;3.00;;;;;;;-8.10;39.82;101703.53;4907543;29;20041;-78
2022/03/11 03:40:08;;;;;;;8.90;2.93;;;;;;;-8.22;39.39;101688.97;4890278;29;20036;-78
2022/03/11 03:42:35;;;;;;;8.83;2.90;;;;;;;-8.32;39.84;101694.75;4901315;29;20043;-80
2022/03/11 03:45:01;;;;;;;12.50;3.07;;;;;;;-8.52;39.97;101675.19;4867956;29;20055;-79
2022/03/11 03:47:29;;;;;;;12.77;3.17;;;;;;;-8.64;40.17;101676.50;4873451;29;21199;-77
2022/03/11 03:49:58;;;;;;;11.33;2.60;;;;;;;-8.58;40.05;101697.31;4883517;29;20036;-78
2022/03/11 03:52:28;;;;;;;6.87;2.60;;;;;;;-8.68;40.26;101685.41;4884269;29;20044;-80
2022/03/11 03:54:56;;;;;;;;;;;;;;;-8.74;39.87;101683.91;4901707;29;20041;-80
2022/03/11 03:57:28;;;;;;;5.37;2.70;;;;;;;-8.85;39.81;101676.16;4871899;29;19962;-81
2022/03/11 03:59:54;;;;;;;8.25;2.47;;;;;;;-8.74;40.06;101688.97;4906423;29;20037;-80
2022/03/11 04:02:21;;;;;;;8.67;2.60;;;;;;;-8.70;39.64;101686.88;4913714;29;20056;-80
2022/03/11 04:04:48;;;;;;;11.77;2.63;;;;;;;-8.73;40.01;101690.75;4905089;29;20052;-77
2022/03/11 04:07:14;;;;;;;11.07;3.60;;;;;;;-8.79;39.93;101680.91;4892317;29;20142;-78
2022/03/11 04:09:47;;;;;;;7.97;3.27;;;;;;;-8.73;40.43;101675.59;4917452;29;20466;-77
2022/03/11 04:12:14;;;;;;;9.23;3.40;;;;;;;-8.66;39.79;101686.47;4904947;29;20047;-78
2022/03/11 04:14:42;;;;;;;17.20;4.70;;;;;;;-8.52;39.80;101692.88;4904353;29;20139;-77
2022/03/11 04:17:34;;;;;;;11.20;3.37;;;;;;;-8.42;40.39;101686.13;4904590;29;20192;-78
2022/03/11 04:20:44;;;;;;;10.53;3.73;;;;;;;-8.97;39.56;101546.28;4892734;29;20146;-77
2022/03/11 04:26:14;;;;;;;16.58;5.22;;;;;;;-7.91;39.51;101660.69;4863375;29;20048;-77
2022/03/11 04:28:41;;;;;;;13.13;3.77;;;;;;;-7.65;39.94;101668.22;4892546;29;20047;-78
2022/03/11 04:31:09;;;;;;;12.67;4.03;;;;;;;-7.37;39.79;101669.91;4893310;29;20048;-81
2022/03/11 04:33:36;;;;;;;14.17;4.90;;;;;;;-7.22;39.68;101652.75;4909934;29;20084;-77
2022/03/11 04:36:03;;;;;;;13.27;4.23;;;;;;;-6.88;39.38;101666.84;4890357;29;20423;-78
2022/03/11 04:38:30;;;;;;;15.93;4.53;;;;;;;-6.57;39.39;101663.66;4902471;29;20107;-78
2022/03/11 04:41:06;;;;;;;13.67;4.50;;;;;;;-6.20;38.73;101659.34;4887606;29;20043;-79
2022/03/11 04:43:34;;;;;;;18.45;4.25;;;;;;;-5.87;39.02;101655.44;4903437;29;20040;-79
2022/03/11 04:45:59;;;;;;;20.05;4.25;;;;;;;-5.63;38.60;101626.22;4869291;29;20402;-81
2022/03/11 04:48:25;;;;;;;23.10;4.57;;;;;;;-4.89;38.20;101641.66;4892677;29;20131;-78
2022/03/11 04:50:51;;;;;;;22.83;6.22;;;;;;;-3.29;37.71;101641.53;4904795;29;20040;-79
2022/03/11 04:53:18;;;;;;;19.60;7.20;;;;;;;-1.55;36.41;101629.50;4902598;29;20063;-78
2022/03/11 04:55:44;;;;;;;23.65;7.30;;;;;;;0.06;35.42;101634.06;4889559;29;20039;-79
2022/03/11 04:58:09;;;;;;;28.63;8.00;;;;;;;1.42;34.14;101620.84;4889499;29;20045;-79
2022/03/11 05:00:36;;;;;;;20.00;7.95;;;;;;;2.59;32.82;101625.47;4902504;29;20051;-80
2022/03/11 05:03:02;;;;;;;28.65;8.50;;;;;;;3.76;32.27;101624.47;4872940;29;20121;-78
2022/03/11 05:05:29;;;;;;;29.85;7.97;;;;;;;4.92;30.57;101624.56;4868557;29;20471;-80
2022/03/11 05:07:55;;;;;;;19.40;9.30;;;;;;;5.95;29.96;101623.59;4852986;29;20045;-79
2022/03/11 05:10:21;;;;;;;21.05;8.20;;;;;;;7.01;28.01;101623.19;4887479;29;20128;-78
2022/03/11 05:12:47;;;;;;;26.23;9.00;;;;;;;7.86;27.89;101601.75;4888718;29;20468;-78
2022/03/11 05:15:13;;;;;;;24.90;9.13;;;;;;;8.71;26.79;101609.47;4885641;29;20056;-78
2022/03/11 05:17:39;;;;;;;32.45;10.52;;;;;;;9.30;25.96;101575.53;4874186;29;20040;-78
2022/03/11 05:20:05;;;;;;;26.35;9.20;;;;;;;10.28;24.86;101595.03;4887038;29;20513;-79
2022/03/11 05:22:32;;;;;;;27.02;9.00;;;;;;;11.15;24.30;101603.69;4884985;29;20045;-80
2022/03/11 05:24:59;;;;;;;48.72;20.92;;;;;;;11.86;23.62;101596.13;4852490;29;20988;-79
2022/03/11 05:27:25;;;;;;;22.48;9.00;;;;;;;12.60;22.74;101598.84;4865009;29;20055;-79
2022/03/11 05:29:51;;;;;;;21.65;8.55;;;;;;;13.30;21.56;101588.22;4870589;29;20101;-78
2022/03/11 05:32:20;;;;;;;24.75;8.93;;;;;;;14.05;21.21;101598.31;4896954;29;20278;-78
2022/03/11 05:34:47;;;;;;;23.92;8.57;;;;;;;14.80;20.32;101586.41;4883293;29;20072;-78
2022/03/11 05:37:19;;;;;;;34.42;11.95;;;;;;;15.34;19.72;101590.84;4895357;29;20068;-79
2022/03/11 05:39:44;;;;;;;29.13;10.20;;;;;;;16.01;19.12;101588.13;4899822;29;20044;-79
2022/03/11 05:42:10;;;;;;;38.83;11.32;;;;;;;16.64;18.67;101579.13;4888706;29;20045;-80
2022/03/11 05:44:49;;;;;;;;;;;;;;;;;;;;;
2022/03/11 05:47:18;;;;;;;33.10;11.77;;;;;;;17.89;17.54;101580.69;4892977;29;20065;-78
2022/03/11 05:49:44;;;;;;;34.15;13.38;;;;;;;18.43;16.87;101567.78;4882719;29;20055;-79
2022/03/11 05:52:21;;;;;;;35.53;14.30;;;;;;;19.02;16.40;101556.41;4884463;29;20093;-78
2022/03/11 05:55:00;;;;;;;31.83;12.85;;;;;;;19.59;15.89;101546.63;4883914;29;20044;-79
2022/03/11 05:57:26;;;;;;;41.53;20.30;;;;;;;19.98;15.40;101518.59;4897113;29;20048;-78
2022/03/11 05:59:55;;;;;;;36.08;16.55;;;;;;;20.45;15.23;101497.28;4856497;29;20071;-79
2022/03/11 06:02:30;;;;;;;29.50;15.45;;;;;;;21.13;14.75;101515.97;4898391;29;20067;-80
2022/03/11 06:05:13;;;;;;;36.80;16.92;;;;;;;21.94;14.12;101553.53;4901884;29;20100;-79
2022/03/11 06:07:46;;;;;;;41.35;15.25;;;;;;;22.29;13.71;101517.16;4895231;29;20063;-80
2022/03/11 06:10:33;;;;;;;34.63;13.55;;;;;;;22.55;13.44;101460.69;4897237;29;20052;-81
2022/03/11 06:12:59;;;;;;;44.55;13.40;;;;;;;23.42;13.07;101513.50;4898220;29;20069;-80
2022/03/11 06:15:27;;;;;;;35.85;12.60;;;;;;;24.11;12.81;101542.91;4882306;29;20048;-78
2022/03/11 06:18:23;;;;;;;33.97;12.75;;;;;;;24.48;12.44;101515.75;4884205;29;20159;-78
2022/03/11 06:22:05;;;;;;;30.63;11.68;;;;;;;25.18;11.93;101535.97;4885334;29;20044;-78
2022/03/11 06:24:32;;;;;;;25.25;11.48;;;;;;;25.48;12.22;101484.97;4867963;29;20135;-78
2022/03/11 06:26:58;;;;;;;19.98;9.25;;;;;;;26.22;11.35;101528.72;4892114;29;20048;-79
2022/03/11 06:29:24;;;;;;;14.77;7.97;;;;;;;26.68;11.37;101509.63;4885028;29;20529;-79
2022/03/11 06:31:53;;;;;;;17.25;7.35;;;;;;;27.46;10.72;101518.13;4880058;29;20099;-80
2022/03/11 06:34:22;;;;;;;12.23;6.28;;;;;;;28.02;10.54;101514.25;4886686;29;20051;-79
2022/03/11 06:36:48;;;;;;;11.48;6.40;;;;;;;28.59;10.01;101504.81;4887950;29;20083;-78
2022/03/11 06:39:15;;;;;;;11.60;6.28;;;;;;;28.92;9.98;101499.31;4909056;29;20097;-79
2022/03/11 06:41:42;;;;;;;13.68;6.20;;;;;;;29.30;9.88;101488.13;4905430;29;20052;-81
2022/03/11 06:44:08;;;;;;;10.07;6.53;;;;;;;29.72;9.55;101482.84;4883105;29;20068;-79
2022/03/11 06:46:35;;;;;;;9.50;5.82;;;;;;;30.11;9.41;101476.88;4905342;29;20074;-81
2022/03/11 06:49:03;;;;;;;12.02;6.53;;;;;;;30.18;8.91;101492.47;4876983;29;20087;-79
2022/03/11 06:51:29;;;;;;;28.10;17.70;;;;;;;30.19;8.94;101491.53;4890982;29;20044;-79
2022/03/11 06:53:56;;;;;;;12.07;7.05;;;;;;;30.17;8.67;101481.84;4909902;29;20048;-79
2022/03/11 06:56:22;;;;;;;10.82;6.18;;;;;;;30.39;8.68;101489.34;4909660;29;20039;-78
2022/03/11 06:58:48;;;;;;;11.63;6.18;;;;;;;30.69;8.49;101487.41;4906731;29;20059;-79
2022/03/11 07:01:14;;;;;;;14.20;6.72;;;;;;;31.08;8.64;101480.25;4887947;29;20155;-78
2022/03/11 07:03:41;;;;;;;10.88;6.47;;;;;;;31.50;8.22;101486.28;4890327;29;20107;-78
2022/03/11 07:06:06;;;;;;;11.52;6.28;;;;;;;31.70;8.42;101489.38;4887454;29;20068;-77
2022/03/11 07:08:33;;;;;;;10.73;5.97;;;;;;;31.89;8.28;101483.56;4905641;29;20048;-77
2022/03/11 07:10:59;;;;;;;10.70;6.72;;;;;;;32.47;8.20;101482.91;4904486;29;20080;-77
2022/03/11 07:13:28;;;;;;;13.23;6.85;;;;;;;32.88;8.08;101475.34;4889844;29;20039;-79
2022/03/11 07:15:56;;;;;;;13.05;7.35;;;;;;;32.97;7.97;101474.66;4910474;29;20096;-77
2022/03/11 07:18:22;;;;;;;17.95;7.45;;;;;;;33.15;7.58;101476.88;4907307;29;20055;-77
2022/03/11 07:20:48;;;;;;;14.07;7.32;;;;;;;33.23;7.22;101455.53;4894541;29;20048;-78
2022/03/11 07:23:15;;;;;;;13.70;7.15;;;;;;;33.51;7.41;101476.81;4878436;29;20077;-81
2022/03/11 07:25:41;;;;;;;16.65;9.15;;;;;;;33.46;7.22;101479.84;4909212;29;20158;-79
2022/03/11 07:28:34;;;;;;;24.73;8.52;;;;;;;33.68;6.80;101432.25;4895720;29;20133;-79
2022/03/11 07:31:19;;;;;;;18.00;8.27;;;;;;;34.13;6.66;101456.44;4919795;29;20071;-80
2022/03/11 07:33:58;;;;;;;15.70;8.13;;;;;;;34.20;6.90;101435.22;4877321;29;20059;-75
2022/03/11 07:36:41;;;;;;;19.42;9.93;;;;;;;34.70;6.76;101469.75;4914759;29;20054;-79
2022/03/11 07:39:08;;;;;;;23.65;9.68;;;;;;;34.72;6.67;101434.47;4916208;29;20076;-78
2022/03/11 07:41:42;;;;;;;17.95;8.85;;;;;;;34.88;6.92;101429.44;4901361;29;20060;-81
2022/03/11 07:44:08;;;;;;;15.45;9.00;;;;;;;34.95;6.38;101449.56;4898966;29;20058;-80
2022/03/11 07:46:35;;;;;;;16.70;9.02;;;;;;;34.91;6.71;101439.13;4916157;29;20030;-79
2022/03/11 07:49:05;;;;;;;17.15;9.52;;;;;;;35.24;6.56;101450.69;4914335;29;20054;-78
2022/03/11 07:51:35;;;;;;;19.00;9.05;;;;;;;35.54;6.37;101449.00;4913877;29;20099;-81
2022/03/11 07:54:34;;;;;;;16.45;9.38;;;;;;;35.93;6.35;101451.78;4902740;29;20058;-81
2022/03/11 07:57:06;;;;;;;21.70;11.48;;;;;;;35.92;6.03;101370.72;4914756;29;20044;-80
2022/03/11 07:59:34;;;;;;;15.02;9.82;;;;;;;36.88;6.51;101438.50;4942500;23;20119;31
2022/03/11 08:02:15;;;;;;;16.33;6.82;;;;;;;37.14;6.03;101402.63;4907525;29;20063;-79
2022/03/11 08:04:49;;;;;;;14.20;7.47;;;;;;;36.48;5.88;101339.34;4902318;29;20055;-79
2022/03/11 08:07:27;;;;;;;16.58;7.38;;;;;;;36.47;6.34;101367.44;4924060;29;20135;-80
2022/03/11 08:09:53;;;;;;;11.38;6.22;;;;;;;36.60;6.46;101424.88;4919927;29;20059;-82
2022/03/11 08:12:20;;;;;;;13.15;5.95;;;;;;;36.61;6.06;101413.03;4916905;29;20051;-79
2022/03/11 08:14:47;;;;;;;14.23;7.38;;;;;;;36.50;5.92;101391.53;4903830;29;20079;-81
2022/03/11 08:17:23;;;;;;;17.52;7.88;;;;;;;36.22;5.82;101394.09;4898247;29;20048;-80
2022/03/11 08:20:02;;;;;;;15.50;8.93;;;;;;;35.75;6.08;101316.28;4901105;29;20076;-80
2022/03/11 08:22:36;;;;;;;18.77;8.90;;;;;;;36.40;6.01;101399.66;4905495;29;20076;-81
2022/03/11 08:25:05;;;;;;;18.73;8.93;;;;;;;36.24;6.39;101400.25;4927440;29;20083;-82
2022/03/11 08:27:31;;;;;;;18.35;8.82;;;;;;;36.38;5.60;101392.66;4913065;29;20040;-81
2022/03/11 08:30:23;;;;;;;17.95;7.57;;;;;;;36.17;5.95;101394.53;4917948;29;20175;-81
2022/03/11 08:33:20;;;;;;;13.20;7.15;;;;;;;35.50;5.71;101342.03;4910440;29;20032;-81
2022/03/11 08:35:56;;;;;;;18.55;8.40;;;;;;;35.47;5.88;101375.66;4931043;29;20138;-80
2022/03/11 08:38:22;;;;;;;15.38;8.35;;;;;;;35.63;6.43;101388.66;4912970;29;20044;-81
2022/03/11 08:40:51;;;;;;;19.10;8.50;;;;;;;35.47;6.02;101374.78;4913378;29;20040;-80
2022/03/11 08:43:19;;;;;;;20.08;6.90;;;;;;;35.17;6.16;101368.44;4920205;29;20167;-80
2022/03/11 08:45:45;;;;;;;18.08;7.07;;;;;;;35.04;6.27;101369.50;4921802;29;20072;-80
2022/03/11 08:48:12;;;;;;;10.20;6.03;;;;;;;34.72;6.06;101356.97;4920284;29;20107;-80
2022/03/11 08:50:41;;;;;;;12.15;6.15;;;;;;;33.99;6.08;101359.56;4922847;29;20056;-80
2022/03/11 08:53:08;;;;;;;14.00;7.40;;;;;;;33.39;5.99;101360.81;4917414;29;20055;-80
2022/03/11 08:55:34;;;;;;;15.77;6.68;;;;;;;32.17;6.68;101356.81;4889952;29;20100;-81
2022/03/11 08:58:00;;;;;;;24.48;8.52;;;;;;;30.70;6.71;101338.72;4934762;29;20044;-81
2022/03/11 09:02:17;;;;;;;20.85;6.72;;;;;;;28.93;7.13;101332.31;5061311;28;20453;-82
2022/03/11 09:04:43;;;;;;;16.10;7.53;;;;;;;27.88;7.65;101358.13;5041293;28;20041;-85
2022/03/11 09:07:09;;;;;;;15.90;7.35;;;;;;;25.77;8.11;101305.06;5056517;28;20113;-82
2022/03/11 09:09:39;;;;;;;15.93;8.18;;;;;;;24.54;8.37;101356.78;5054179;28;20037;-80
2022/03/11 09:12:06;;;;;;;15.25;7.93;;;;;;;23.17;8.85;101323.19;5037983;28;20038;-80
2022/03/11 09:14:33;;;;;;;15.88;7.78;;;;;;;22.78;9.26;101355.56;5032422;28;20034;-81
2022/03/11 09:17:00;;;;;;;13.48;7.70;;;;;;;22.58;9.07;101297.91;5053822;28;20168;-81
2022/03/11 09:19:26;;;;;;;17.52;7.70;;;;;;;23.45;9.51;101342.53;5045664;28;20068;-80
2022/03/11 09:21:52;;;;;;;13.85;7.32;;;;;;;24.08;9.31;101333.84;5034854;28;20037;-82
2022/03/11 09:24:18;;;;;;;20.98;8.18;;;;;;;24.07;9.21;101326.81;5020719;28;20152;-81
2022/03/11 09:26:54;;;;;;;16.30;7.65;;;;;;;24.09;9.19;101316.13;5039443;28;20048;-82
2022/03/11 09:29:23;;;;;;;13.10;7.72;;;;;;;23.48;9.25;101233.50;5025969;28;20164;-81
2022/03/11 09:31:50;;;;;;;21.17;7.70;;;;;;;24.56;9.22;101299.94;5040126;28;20046;-81
2022/03/11 09:34:30;;;;;;;18.17;8.00;;;;;;;24.46;8.98;101280.84;5038821;28;20041;-83
2022/03/11 09:37:14;;;;;;;20.50;9.43;;;;;;;24.92;9.06;101320.53;5025974;28;20045;-81
2022/03/11 09:39:43;;;;;;;15.00;8.13;;;;;;;24.53;9.27;101222.91;5039515;28;20088;-82
2022/03/11 09:42:10;;;;;;;17.58;9.00;;;;;;;25.15;9.20;101294.66;5038766;28;20174;-81
2022/03/11 09:44:48;;;;;;;18.05;8.38;;;;;;;25.91;8.64;101292.88;5036233;28;20068;-82
2022/03/11 09:47:19;;;;;;;16.73;8.07;;;;;;;26.82;8.73;101256.19;5030983;28;20033;-83
2022/03/11 09:50:15;;;;;;;14.27;7.55;;;;;;;27.44;8.31;101295.50;5037254;28;20477;-83
2022/03/11 09:52:44;;;;;;;14.98;7.30;;;;;;;27.02;8.49;101311.19;5039736;28;21161;-81
2022/03/11 09:55:11;;;;;;;20.67;8.05;;;;;;;27.01;8.82;101255.16;5034963;28;20048;-82
2022/03/11 09:57:37;;;;;;;16.13;6.78;;;;;;;27.59;8.51;101276.88;5017416;28;20052;-81
2022/03/11 10:00:09;;;;;;;17.02;6.72;;;;;;;28.03;8.69;101285.94;5035687;28;20068;-83
2022/03/11 10:02:45;;;;;;;12.50;6.40;;;;;;;28.90;8.25;101291.47;5023723;28;20040;-79
2022/03/11 10:05:13;;;;;;;13.05;6.35;;;;;;;28.93;7.99;101278.72;5043437;28;20042;-80
2022/03/11 10:07:41;;;;;;;14.52;6.25;;;;;;;29.14;8.04;101278.31;5016523;28;20042;-80
2022/03/11 10:10:19;;;;;;;14.80;6.53;;;;;;;29.76;7.93;101267.16;5045026;28;20105;-82
2022/03/11 10:12:53;;;;;;;11.48;5.78;;;;;;;29.67;8.00;101235.59;5015389;28;20045;-83
2022/03/11 10:15:29;;;;;;;9.63;6.20;;;;;;;29.47;7.67;101226.19;5005483;28;20041;-81
2022/03/11 10:18:02;;;;;;;14.40;6.25;;;;;;;29.71;7.70;101257.69;5024699;28;20041;-83
2022/03/11 10:20:34;;;;;;;14.38;5.90;;;;;;;27.94;7.53;101239.22;4994646;28;20056;-82
2022/03/11 10:23:08;;;;;;;16.70;7.05;;;;;;;24.83;8.38;101253.53;5003856;28;20041;-80
2022/03/11 10:25:35;;;;;;;10.15;6.38;;;;;;;21.89;9.29;101262.22;5017401;28;20037;-81
2022/03/11 10:28:10;;;;;;;14.80;6.22;;;;;;;19.40;9.75;101254.00;5018680;28;20046;-82
2022/03/11 10:30:40;;;;;;;8.63;5.38;;;;;;;17.10;10.45;101226.41;5018468;28;20037;-83
2022/03/11 10:33:22;;;;;;;12.10;5.80;;;;;;;15.89;10.96;101272.31;5015325;28;20041;-80
2022/03/11 10:35:49;;;;;;;16.23;5.55;;;;;;;14.87;11.60;101246.63;5022474;28;20151;-83
2022/03/11 10:38:26;;;;;;;11.70;5.45;;;;;;;14.20;12.19;101256.34;5027694;28;20513;-82
2022/03/11 10:40:57;;;;;;;8.73;4.07;;;;;;;13.29;12.39;101233.53;5028379;28;20045;-85
2022/03/11 10:43:27;;;;;;;13.40;4.32;;;;;;;12.73;12.24;101255.09;4995461;28;20053;-83
2022/03/11 10:46:09;;;;;;;8.55;3.97;;;;;;;12.09;12.91;101256.41;5028080;28;20041;-85
2022/03/11 10:48:48;;;;;;;9.13;3.60;;;;;;;10.90;13.24;101164.00;5008387;28;20053;-83
2022/03/11 10:51:36;;;;;;;7.00;3.45;;;;;;;10.64;13.54;101220.06;5002052;28;20064;-83
2022/03/11 10:54:05;;;;;;;8.07;3.45;;;;;;;9.73;13.47;101158.88;5022768;28;20053;-82
2022/03/11 10:56:44;;;;;;;5.18;3.45;;;;;;;9.81;13.67;101198.88;5004399;28;20079;-80
2022/03/11 10:59:28;;;;;;;6.40;3.72;;;;;;;9.91;14.19;101257.97;5018142;28;20056;-81
2022/03/11 11:02:00;;;;;;;5.43;3.63;;;;;;;9.64;13.96;101230.63;5007368;28;20053;-80
2022/03/11 11:04:31;;;;;;;13.90;4.28;;;;;;;8.84;14.03;101164.22;5015149;28;20057;-83
2022/03/11 11:06:59;;;;;;;;;;;;;;;8.91;14.64;101223.19;4991561;28;20713;-80
2022/03/11 11:09:31;;;;;;;6.78;4.20;;;;;;;8.55;14.73;101188.72;5018442;28;19917;-82
2022/03/11 11:11:58;;;;;;;9.30;4.38;;;;;;;8.07;14.90;101178.94;5021650;28;20068;-81
2022/03/11 11:14:24;;;;;;;7.95;3.78;;;;;;;7.62;14.63;101216.72;4994688;28;20044;-84
2022/03/11 11:17:00;;;;;;;7.82;3.92;;;;;;;7.15;14.98;101210.31;5019857;28;20128;-81
2022/03/11 11:19:33;;;;;;;12.07;4.40;;;;;;;6.48;15.58;101160.97;5019946;28;20041;-84
2022/03/11 11:22:06;;;;;;;11.10;3.83;;;;;;;6.32;15.69;101195.84;4988866;28;20180;-80
2022/03/11 11:24:40;;;;;;;10.88;3.63;;;;;;;6.02;16.15;101197.50;4993352;28;20041;-81
2022/03/11 11:27:13;;;;;;;8.30;3.97;;;;;;;5.50;16.43;101138.94;4987647;28;20042;-81
2022/03/11 11:29:54;;;;;;;10.35;4.13;;;;;;;5.68;16.47;101204.09;5026436;28;20039;-84
2022/03/11 11:32:30;;;;;;;8.65;3.88;;;;;;;5.19;16.53;101112.06;5010228;28;20101;-84
2022/03/11 11:35:28;;;;;;;8.25;3.20;;;;;;;5.65;16.89;101200.56;5008493;28;20045;-83
2022/03/11 11:38:28;;;;;;;6.40;2.80;;;;;;;5.47;16.81;101211.13;5022981;28;20105;-83
2022/03/11 11:41:27;;;;;;;7.18;2.90;;;;;;;5.17;16.84;101201.50;5003232;28;21601;-86
2022/03/11 11:44:02;;;;;;;5.45;2.22;;;;;;;4.58;17.14;101145.19;4990384;28;20046;-82